Kenai, AK (99611)

3:23 AM AKDT on July 29, 2016 (GMT -0800)
coastal | | Change Station

Elev 90 ft 60.57 °N, 151.29 °W | Updated 13 minutes ago

Mostly Cloudy
Mostly Cloudy
54.0 °F
Feels Like 54.0 °F
N
1.7
Wind Variable Wind from ESE

Today
High -- | Low -- °F
--% Chance of Precip.
Yesterday
High -- | Low -- °F
Precip. -- in
Pressure 30.02 in
Visibility 10.0 miles
Clouds Mostly Cloudy 2400 ft
Mostly Cloudy 8500 ft
Dew Point 52 °F
Humidity 93%
Rainfall 0.00 in
Snow Depth Not available.
5:36 AM 10:44 PM
Waning Crescent, 23% visible
METAR PAEN 291053Z AUTO 15004KT 10SM BKN024 BKN085 13/11 A3002 RMK AO2 SLP166 T01280111 TSNO
Pressure 30.02 in
Visibility 10.0 miles
Clouds Mostly Cloudy 2400 ft
Mostly Cloudy 8500 ft
Dew Point 52 °F
Humidity 93%
Rainfall 0.00 in
Snow Depth Not available.
5:36 AM 10:44 PM
Waning Crescent, 23% visible
METAR PAEN 291053Z AUTO 15004KT 10SM BKN024 BKN085 13/11 A3002 RMK AO2 SLP166 T01280111 TSNO

10-Day Weather Forecast

Almanac

Astronomy

Jul. 29, 2016 Rise Set
Actual Time
Civil Twilight
Nautical Twilight
Astronomical Twilight
Moon
Length of Visible Light
Length of Day
Tomorrow will be .
, % of the Moon is Illuminated

Today's Extremes

State Highs State Lows

Community

WunderPhotos

Upload Photos

1,928,312 photos uploaded!

WunderBlog® & News

Nearby

Air Quality

  Air Quality AQ Index Pollutant
Not available.

Snow Depth

Station Depth Elevation

Earthquake Activity

City Distance Mag. Time & Date
Minimum magnitude displayed is 2.5.

Coastal Water Temperatures

Place Temperature

Stations

Nearby Weather Stations

Station Location Temp. Windchill Dew Point Humidity Wind Precip. Elev Updated Type
                   

Watches & Warnings

There are currently no watches in effect.